Time;durP1;ratioP1;P1;durP2;ratioP2;P2;SDS_P1;SDS_P2;PMS_P1;PMS_P2;Temp;Humidity;BMP_temperature;BMP_pressure;BME280_temperature;BME280_humidity;BME280_pressure;Samples;Min_cycle;Max_cycle;Signal;HPM_P1;HPM_P2
2022/01/02 00:00:00;;;;;;;35.92;18.27;;;;;;;3.84;100.00;99604.72;10413557;28;20041;-75
2022/01/02 00:05:07;;;;;;;38.35;20.05;;;;;;;3.72;100.00;99600.59;10412472;28;20069;-77
2022/01/02 00:10:09;;;;;;;38.95;19.13;;;;;;;3.75;100.00;99587.19;10413608;28;20049;-74
2022/01/02 00:15:12;;;;;;;35.78;19.75;;;;;;;3.50;100.00;99536.09;10412588;28;20048;-74
2022/01/02 00:20:14;;;;;;;42.53;19.02;;;;;;;3.81;100.00;99565.59;10412076;28;20041;-74
2022/01/02 00:25:25;;;;;;;36.28;18.75;;;;;;;3.59;99.89;99520.31;10413116;28;20064;-75
2022/01/02 00:30:26;;;;;;;37.10;19.23;;;;;;;3.53;100.00;99522.66;10411103;28;20562;-75
2022/01/02 00:35:27;;;;;;;35.15;18.85;;;;;;;3.12;100.00;99438.94;10412832;28;20053;-75
2022/01/02 00:40:31;;;;;;;38.05;18.63;;;;;;;3.62;99.32;99529.69;10412702;28;20132;-74
2022/01/02 00:45:43;;;;;;;35.13;18.75;;;;;;;3.17;99.64;99441.97;10410979;28;20084;-74
2022/01/02 00:50:56;;;;;;;33.70;19.58;;;;;;;3.24;100.00;99446.66;10411757;28;20079;-75
2022/01/02 00:55:59;;;;;;;33.50;18.55;;;;;;;3.58;100.00;99495.00;10419675;28;20512;-75
2022/01/02 01:01:05;;;;;;;36.35;19.83;;;;;;;3.73;100.00;99516.38;10420087;28;20037;-75
2022/01/02 01:06:09;;;;;;;36.05;19.42;;;;;;;2.89;99.41;99362.34;10419433;28;20049;-77
2022/01/02 01:11:11;;;;;;;37.20;19.38;;;;;;;3.64;100.00;99499.69;10418279;28;20036;-75
2022/01/02 01:16:15;;;;;;;37.40;18.30;;;;;;;3.33;100.00;99436.09;10418847;28;20038;-75
2022/01/02 01:21:17;;;;;;;36.10;18.17;;;;;;;3.60;99.81;99473.88;10418053;28;20093;-74
2022/01/02 01:26:19;;;;;;;36.83;18.88;;;;;;;3.51;100.00;99443.22;10418105;28;20073;-75
2022/01/02 01:31:20;;;;;;;37.75;19.65;;;;;;;3.41;100.00;99419.63;10418093;28;20041;-75
2022/01/02 01:36:20;;;;;;;38.10;20.77;;;;;;;3.49;100.00;99424.97;10417632;28;20038;-75
2022/01/02 01:41:29;;;;;;;40.03;19.50;;;;;;;3.63;100.00;99421.06;10416260;28;20041;-74
2022/01/02 01:46:29;;;;;;;39.67;20.50;;;;;;;3.42;100.00;99384.53;10417919;28;20132;-74
2022/01/02 01:51:30;;;;;;;36.92;20.20;;;;;;;3.69;100.00;99386.31;10416704;28;20121;-74
2022/01/02 01:56:31;;;;;;;34.28;18.27;;;;;;;3.04;100.00;99268.25;10416953;28;20128;-74
2022/01/02 02:01:33;;;;;;;38.58;20.77;;;;;;;3.57;100.00;99356.00;10415640;28;20038;-74
2022/01/02 02:06:36;;;;;;;35.90;19.38;;;;;;;3.11;100.00;99271.97;10416291;28;20057;-74
2022/01/02 02:11:39;;;;;;;37.60;19.33;;;;;;;2.77;100.00;99228.91;10415483;28;20120;-74
2022/01/02 02:16:40;;;;;;;38.15;19.02;;;;;;;3.56;100.00;99370.06;10416444;28;20037;-74
2022/01/02 02:21:42;;;;;;;34.50;19.00;;;;;;;3.56;100.00;99360.41;10416852;28;20147;-74
2022/01/02 02:26:44;;;;;;;38.72;20.80;;;;;;;3.57;100.00;99364.69;10416201;28;20157;-74
2022/01/02 02:31:45;;;;;;;51.13;27.05;;;;;;;3.75;100.00;99383.09;10407112;28;20072;-74
2022/01/02 02:36:46;;;;;;;41.05;21.50;;;;;;;3.81;100.00;99402.72;10392826;28;20124;-74
2022/01/02 02:41:47;;;;;;;41.17;20.60;;;;;;;3.81;100.00;99406.16;10374861;28;20129;-74
2022/01/02 02:52:16;;;;;;;39.05;21.50;;;;;;;3.54;100.00;99356.28;10374438;28;20091;-74
2022/01/02 02:57:19;;;;;;;46.08;21.77;;;;;;;3.86;100.00;99416.25;10373653;28;20049;-75
2022/01/02 03:02:20;;;;;;;38.00;21.20;;;;;;;3.84;100.00;99418.19;10373936;28;20129;-74
2022/01/02 03:07:21;;;;;;;41.38;21.48;;;;;;;3.83;100.00;99421.78;10373431;28;20458;-75
2022/01/02 03:12:22;;;;;;;40.90;22.17;;;;;;;3.76;100.00;99415.44;10373349;28;20037;-76
2022/01/02 03:17:22;;;;;;;40.88;21.38;;;;;;;2.63;100.00;99238.94;10372553;28;20064;-75
2022/01/02 03:22:23;;;;;;;42.50;21.20;;;;;;;3.49;100.00;99359.34;10373210;28;20065;-74
2022/01/02 03:27:25;;;;;;;39.67;20.35;;;;;;;3.11;100.00;99300.84;10373771;28;20140;-74
2022/01/02 03:32:26;;;;;;;44.47;21.67;;;;;;;3.75;100.00;99390.16;10373495;28;20465;-75
2022/01/02 03:37:28;;;;;;;41.25;20.52;;;;;;;3.95;100.00;99406.63;10373292;28;20046;-74
2022/01/02 03:42:29;;;;;;;51.35;22.55;;;;;;;3.99;100.00;99406.19;10372584;28;20046;-75
2022/01/02 03:47:31;;;;;;;43.25;21.08;;;;;;;3.90;100.00;99396.56;10373792;28;20037;-74
2022/01/02 03:52:31;;;;;;;41.42;21.10;;;;;;;2.61;100.00;99169.25;10371286;28;20087;-74
2022/01/02 03:57:32;;;;;;;46.70;22.98;;;;;;;3.95;100.00;99386.44;10373532;28;20084;-74
2022/01/02 04:02:37;;;;;;;45.70;23.83;;;;;;;3.60;100.00;99332.88;10372704;28;20042;-74
2022/01/02 04:07:39;;;;;;;45.55;22.80;;;;;;;3.75;100.00;99369.97;10371616;28;20092;-74
2022/01/02 04:12:40;;;;;;;44.35;23.42;;;;;;;4.02;100.00;99405.88;10372273;28;20139;-74
2022/01/02 04:17:42;;;;;;;55.70;29.90;;;;;;;4.01;100.00;99414.75;10371384;28;20038;-74
2022/01/02 04:22:44;;;;;;;50.90;23.75;;;;;;;3.21;100.00;99269.28;10371787;28;20104;-74
2022/01/02 04:27:45;;;;;;;45.22;23.17;;;;;;;3.33;100.00;99314.53;10374162;28;20230;-74
2022/01/02 04:32:48;;;;;;;44.47;22.75;;;;;;;3.26;100.00;99297.69;10377358;28;20157;-75
2022/01/02 04:37:49;;;;;;;48.72;24.00;;;;;;;4.00;100.00;99392.06;10409446;28;20042;-74
2022/01/02 04:42:50;;;;;;;42.80;21.45;;;;;;;3.42;100.00;99303.16;10413353;28;20045;-74
2022/01/02 04:47:51;;;;;;;52.83;25.92;;;;;;;3.98;100.00;99401.91;10383454;28;20129;-74
2022/01/02 04:52:51;;;;;;;49.20;25.13;;;;;;;3.19;100.00;99268.59;10379467;28;20481;-74
2022/01/02 04:57:52;;;;;;;45.05;22.17;;;;;;;3.74;100.00;99354.34;10381530;28;20037;-71
2022/01/02 05:02:53;;;;;;;44.15;22.63;;;;;;;3.93;100.00;99385.75;10403328;28;20045;-76
2022/01/02 05:07:54;;;;;;;41.55;22.25;;;;;;;3.25;100.00;99259.31;10419846;28;20045;-75
2022/01/02 05:12:55;;;;;;;40.63;21.38;;;;;;;3.92;100.00;99402.50;10420090;28;20437;-75
2022/01/02 05:17:56;;;;;;;44.05;20.80;;;;;;;3.31;100.00;99313.84;10418735;28;20050;-75
2022/01/02 05:22:57;;;;;;;39.80;22.08;;;;;;;3.29;100.00;99315.78;10417166;28;20061;-75
2022/01/02 05:27:58;;;;;;;46.67;23.23;;;;;;;3.84;100.00;99413.75;10419025;28;20379;-75
2022/01/02 05:32:59;;;;;;;44.22;21.95;;;;;;;3.87;100.00;99410.81;10418137;28;20485;-75
2022/01/02 05:38:01;;;;;;;44.22;22.30;;;;;;;3.94;100.00;99418.94;10416745;28;20033;-75
2022/01/02 05:43:05;;;;;;;57.50;23.25;;;;;;;4.18;100.00;99456.97;10417603;28;20477;-75
2022/01/02 05:48:08;;;;;;;45.53;22.45;;;;;;;3.74;100.00;99376.22;10412989;28;20076;-77
2022/01/02 05:53:09;;;;;;;39.00;21.73;;;;;;;4.27;100.00;99454.25;10379444;28;20103;-72
2022/01/02 05:58:10;;;;;;;46.15;21.65;;;;;;;4.30;100.00;99456.59;10412063;28;20440;-73
2022/01/02 06:03:11;;;;;;;44.92;22.95;;;;;;;3.99;100.00;99408.00;10417073;28;20049;-73
2022/01/02 06:08:12;;;;;;;45.67;23.33;;;;;;;4.16;100.00;99427.34;10408406;28;20124;-71
2022/01/02 06:13:13;;;;;;;47.95;22.85;;;;;;;4.12;100.00;99416.31;10387029;28;20037;-73
2022/01/02 06:18:14;;;;;;;44.92;23.02;;;;;;;4.24;100.00;99437.97;10382674;28;20041;-77
2022/01/02 06:23:18;;;;;;;42.13;23.20;;;;;;;3.73;100.00;99344.81;10415926;28;20456;-74
2022/01/02 06:28:19;;;;;;;43.38;22.73;;;;;;;4.04;100.00;99363.69;10409395;28;20038;-76
2022/01/02 06:33:20;;;;;;;44.35;22.73;;;;;;;4.22;100.00;99396.06;10405009;28;20037;-79
2022/01/02 06:38:22;;;;;;;44.30;23.50;;;;;;;4.61;100.00;99452.75;10415653;28;20037;-75
2022/01/02 06:43:23;;;;;;;49.22;23.52;;;;;;;4.68;100.00;99443.28;10426407;28;20045;-75
2022/01/02 06:48:24;;;;;;;49.90;23.75;;;;;;;4.25;100.00;99366.03;10430146;28;20045;-74
2022/01/02 06:53:25;;;;;;;47.38;22.48;;;;;;;4.77;100.00;99447.63;10414671;28;20037;-75
2022/01/02 06:58:25;;;;;;;42.30;23.15;;;;;;;4.71;100.00;99408.78;10415571;28;20512;-74
2022/01/02 07:03:26;;;;;;;45.38;23.27;;;;;;;4.15;100.00;99310.88;10415206;28;20072;-74
2022/01/02 07:08:28;;;;;;;41.85;22.35;;;;;;;4.27;100.00;99295.69;10413952;28;20102;-72
2022/01/02 07:13:29;;;;;;;44.28;22.73;;;;;;;4.62;100.00;99346.56;10412927;28;20041;-75
2022/01/02 07:18:30;;;;;;;44.15;22.80;;;;;;;4.91;100.00;99389.19;10414558;28;20440;-75
2022/01/02 07:23:31;;;;;;;41.60;21.25;;;;;;;5.28;100.00;99426.75;10413923;28;20524;-73
2022/01/02 07:28:33;;;;;;;43.20;22.20;;;;;;;4.62;100.00;99296.59;10409593;28;20033;-76
2022/01/02 07:33:34;;;;;;;44.90;22.70;;;;;;;5.56;100.00;99437.91;10413761;28;20042;-75
2022/01/02 07:38:35;;;;;;;38.15;21.13;;;;;;;5.60;100.00;99439.25;10412094;28;20045;-75
2022/01/02 07:43:35;;;;;;;42.80;21.27;;;;;;;5.80;100.00;99445.91;10413152;28;20041;-74
2022/01/02 07:48:36;;;;;;;36.83;18.65;;;;;;;6.02;100.00;99443.72;10392201;28;20128;-74
2022/01/02 07:53:37;;;;;;;33.28;18.85;;;;;;;5.93;100.00;99401.53;10388883;28;20045;-75
2022/01/02 07:58:38;;;;;;;32.20;17.65;;;;;;;5.58;100.00;99325.31;10390483;28;20069;-76
2022/01/02 08:03:39;;;;;;;27.67;13.63;;;;;;;6.36;100.00;99436.53;10401797;28;20089;-75
2022/01/02 08:08:40;;;;;;;20.65;11.25;;;;;;;6.09;100.00;99365.63;10400179;28;20049;-74
2022/01/02 08:13:41;;;;;;;13.80;6.95;;;;;;;6.02;100.00;99354.09;10400202;28;20124;-76
2022/01/02 08:18:42;;;;;;;3.38;1.77;;;;;;;6.33;100.00;99415.75;10398534;28;20034;-76
2022/01/02 08:23:43;;;;;;;1.98;0.60;;;;;;;5.39;98.93;99306.16;10390211;28;20526;-77
2022/01/02 08:28:44;;;;;;;2.50;1.00;;;;;;;5.26;99.50;99324.19;10416815;28;20057;-76
2022/01/02 08:33:45;;;;;;;0.38;0.10;;;;;;;5.93;99.21;99461.31;10420229;28;20038;-74
2022/01/02 08:38:47;;;;;;;0.57;0.20;;;;;;;5.82;99.00;99470.31;10419459;28;20091;-75
2022/01/02 08:43:48;;;;;;;0.50;0.10;;;;;;;5.09;98.36;99373.34;10419797;28;20500;-75
2022/01/02 08:48:49;;;;;;;0.60;0.10;;;;;;;5.61;98.34;99475.16;10419953;28;20204;-75
2022/01/02 08:53:50;;;;;;;1.63;0.10;;;;;;;5.39;99.07;99452.81;10419366;28;20033;-76
2022/01/02 08:58:51;;;;;;;0.38;0.00;;;;;;;4.79;98.47;99378.09;10419157;28;20128;-77
2022/01/02 09:03:51;;;;;;;0.47;0.05;;;;;;;4.14;98.41;99287.41;10417607;28;20073;-78
2022/01/02 09:08:53;;;;;;;1.30;0.10;;;;;;;4.41;97.93;99336.41;10419744;28;20072;-78
2022/01/02 09:13:54;;;;;;;0.30;0.00;;;;;;;4.01;98.38;99314.03;10418500;28;20048;-77
2022/01/02 09:18:55;;;;;;;0.40;0.00;;;;;;;3.78;98.20;99258.53;10419394;28;20064;-80
2022/01/02 09:23:55;;;;;;;0.10;0.00;;;;;;;4.95;98.51;99477.38;10419065;28;20069;-87
2022/01/02 09:28:57;;;;;;;0.15;0.00;;;;;;;4.97;97.50;99496.47;10419395;28;20041;-90
2022/01/02 09:33:58;;;;;;;1.83;0.15;;;;;;;4.73;98.10;99494.47;10419330;28;20042;-80
2022/01/02 09:38:58;;;;;;;0.95;0.13;;;;;;;4.33;98.27;99471.25;10417461;28;20654;-89
2022/01/02 09:44:00;;;;;;;0.40;0.10;;;;;;;4.04;98.86;99459.13;10419806;28;20045;-90
2022/01/02 09:49:03;;;;;;;0.20;0.10;;;;;;;2.74;99.19;99291.16;10417940;28;20044;-87
2022/01/02 09:54:04;;;;;;;0.57;0.10;;;;;;;2.83;98.11;99334.06;10416609;28;20091;-89
2022/01/02 09:59:05;;;;;;;0.30;0.10;;;;;;;2.60;99.02;99338.00;10417461;28;20049;-84
2022/01/02 10:04:07;;;;;;;9.07;5.05;;;;;;;3.49;99.61;99514.25;10417951;28;20042;-82
2022/01/02 10:09:31;;;;;;;1.70;0.55;;;;;;;1.79;99.53;99260.59;10417463;28;20045;-92
2022/01/02 10:14:32;;;;;;;2.92;0.20;;;;;;;3.62;99.92;99553.31;10417101;28;20187;-89
2022/01/02 10:19:38;;;;;;;0.82;0.20;;;;;;;2.62;100.00;99410.31;10433417;28;20159;-87
2022/01/02 10:24:46;;;;;;;1.67;0.28;;;;;;;2.45;100.00;99393.50;10413002;28;20067;-90
2022/01/02 10:29:56;;;;;;;0.22;0.05;;;;;;;2.79;100.00;99439.44;10421239;28;20041;-88
2022/01/02 10:50:03;;;;;;;0.45;0.10;;;;;;;2.14;100.00;99350.06;10509037;28;20969;-86
2022/01/02 10:55:24;;;;;;;0.50;0.10;;;;;;;3.52;100.00;99579.63;10478843;28;20046;-86
2022/01/02 11:00:26;;;;;;;0.32;0.10;;;;;;;3.35;99.83;99591.69;10426212;28;20045;-87
2022/01/02 11:05:29;;;;;;;0.75;0.22;;;;;;;2.50;99.86;99472.53;10429100;28;20044;-88
2022/01/02 11:10:31;;;;;;;0.60;0.20;;;;;;;2.27;100.00;99468.53;10489005;28;20043;-91
2022/01/02 11:15:34;;;;;;;0.75;0.20;;;;;;;3.09;100.00;99627.34;10479677;28;20041;-85
2022/01/02 11:20:35;;;;;;;2.28;0.30;;;;;;;1.64;100.00;99420.84;10448127;28;20084;-83
2022/01/02 11:25:42;;;;;;;0.50;0.10;;;;;;;3.12;100.00;99650.69;10448385;28;20063;-82
2022/01/02 11:30:43;;;;;;;0.70;0.20;;;;;;;0.81;99.87;99318.94;10447016;28;20527;-84
2022/01/02 11:35:48;;;;;;;0.55;0.30;;;;;;;2.76;100.00;99639.03;10444939;28;20052;-83
2022/01/02 11:40:54;;;;;;;0.80;0.30;;;;;;;2.14;100.00;99550.00;10446260;28;20072;-84
2022/01/02 11:45:55;;;;;;;0.93;0.45;;;;;;;2.61;100.00;99646.44;10446791;28;20081;-84
2022/01/02 11:50:56;;;;;;;3.28;0.52;;;;;;;2.08;100.00;99574.13;10418640;28;20501;-82
2022/01/02 11:55:57;;;;;;;1.25;0.35;;;;;;;2.39;100.00;99621.25;10419216;28;20087;-83
2022/01/02 12:00:58;;;;;;;1.52;0.40;;;;;;;2.54;100.00;99634.81;10417846;28;20044;-83
2022/01/02 12:06:21;;;;;;;1.42;0.40;;;;;;;2.95;100.00;99702.84;10417721;28;20044;-83
2022/01/02 12:11:31;;;;;;;1.10;0.27;;;;;;;2.92;100.00;99700.50;10419641;28;20049;-84
2022/01/02 12:16:40;;;;;;;1.65;0.30;;;;;;;2.34;100.00;99620.84;10417425;28;20382;-84
2022/01/02 12:22:14;;;;;;;0.95;0.40;;;;;;;3.06;100.00;99722.91;10417383;28;20041;-84
2022/01/02 12:27:16;;;;;;;0.30;0.20;;;;;;;2.89;100.00;99713.06;10418157;28;20496;-85
2022/01/02 12:32:21;;;;;;;2.70;0.43;;;;;;;2.36;100.00;99637.25;10417425;28;20397;-85
2022/01/02 12:37:28;;;;;;;6.18;2.67;;;;;;;3.02;100.00;99724.16;10416055;28;20044;-85
2022/01/02 12:42:29;;;;;;;2.20;1.10;;;;;;;2.36;100.00;99624.97;10416481;28;20033;-85
2022/01/02 12:47:30;;;;;;;2.03;0.77;;;;;;;1.30;100.00;99444.69;10416206;28;20416;-86
2022/01/02 12:52:31;;;;;;;1.00;0.40;;;;;;;2.90;100.00;99696.34;10416154;28;20037;-85
2022/01/02 12:57:32;;;;;;;0.90;0.40;;;;;;;3.15;100.00;99744.88;10415408;28;20052;-85
2022/01/02 13:02:33;;;;;;;1.88;0.63;;;;;;;2.65;100.00;99676.69;10414658;28;20072;-85
2022/01/02 13:07:36;;;;;;;1.25;0.60;;;;;;;2.26;100.00;99627.56;10415328;28;20045;-85
2022/01/02 13:12:38;;;;;;;2.97;0.45;;;;;;;2.96;100.00;99759.63;10415296;28;20065;-86
2022/01/02 13:17:43;;;;;;;1.30;0.50;;;;;;;2.21;100.00;99623.66;10415326;28;20071;-85
2022/01/02 13:22:46;;;;;;;;;;;;;;;3.36;100.00;99779.72;10415145;28;20045;-85
2022/01/02 13:27:55;;;;;;;1.75;0.77;;;;;;;2.93;100.00;99757.25;10415918;28;19917;-85
2022/01/02 13:33:01;;;;;;;1.80;0.80;;;;;;;2.95;100.00;99730.88;10414410;28;20042;-85
2022/01/02 13:38:07;;;;;;;1.50;0.47;;;;;;;2.73;100.00;99706.53;10413394;28;20068;-85
2022/01/02 13:43:10;;;;;;;3.67;1.05;;;;;;;1.88;100.00;99567.97;10413890;28;20513;-84
2022/01/02 13:48:27;;;;;;;4.93;0.82;;;;;;;3.42;100.00;99794.94;10414068;28;20061;-84
2022/01/02 13:53:30;;;;;;;2.30;1.00;;;;;;;2.47;100.00;99610.94;10414888;28;20119;-84
2022/01/02 13:58:39;;;;;;;1.75;0.75;;;;;;;2.85;100.00;99716.91;10415129;28;20049;-85
2022/01/02 14:03:42;;;;;;;2.28;1.20;;;;;;;2.32;100.00;99620.97;10412694;28;20033;-84
2022/01/02 14:08:44;;;;;;;2.78;0.93;;;;;;;1.77;100.00;99536.66;10391677;28;20045;-85
2022/01/02 14:13:50;;;;;;;2.08;1.05;;;;;;;3.47;100.00;99815.56;10413152;28;20041;-84
2022/01/02 14:18:51;;;;;;;2.42;1.30;;;;;;;2.37;100.00;99647.63;10439413;28;20396;-81
2022/01/02 14:23:52;;;;;;;3.05;1.30;;;;;;;1.90;100.00;99594.06;10453287;28;20040;-81
2022/01/02 14:28:54;;;;;;;2.88;1.55;;;;;;;3.25;100.00;99810.50;10433666;28;20584;-81
2022/01/02 14:33:56;;;;;;;3.90;2.55;;;;;;;3.37;100.00;99836.53;10411480;28;20055;-81
2022/01/02 14:38:58;;;;;;;5.55;2.92;;;;;;;2.60;100.00;99726.06;10411549;28;20163;-85
2022/01/02 14:43:59;;;;;;;4.38;2.90;;;;;;;3.03;100.00;99815.00;10409750;28;20037;-82
2022/01/02 14:49:00;;;;;;;4.72;3.08;;;;;;;2.67;100.00;99756.88;10397982;28;20049;-81
2022/01/02 14:54:01;;;;;;;2.42;1.50;;;;;;;3.38;100.00;99880.22;10415239;28;20065;-82
2022/01/02 14:59:02;;;;;;;3.55;1.73;;;;;;;1.88;100.00;99662.25;10434971;28;20511;-79
2022/01/02 15:04:05;;;;;;;3.08;1.80;;;;;;;1.88;100.00;99648.34;10436474;28;20100;-78
2022/01/02 15:09:06;;;;;;;3.30;1.80;;;;;;;2.10;100.00;99691.91;10429831;28;20045;-76
2022/01/02 15:14:07;;;;;;;5.82;1.55;;;;;;;1.43;100.00;99619.81;10433402;28;20817;-77
2022/01/02 15:19:08;;;;;;;3.53;1.67;;;;;;;2.38;100.00;99769.84;10435834;28;20045;-80
2022/01/02 15:24:09;;;;;;;2.95;1.80;;;;;;;1.87;100.00;99678.13;10437175;28;20132;-80
2022/01/02 15:29:10;;;;;;;5.32;1.92;;;;;;;3.09;100.00;99890.59;10442191;28;20045;-79
2022/01/02 15:34:11;;;;;;;3.80;1.95;;;;;;;3.10;100.00;99891.41;10440310;28;20404;-84
2022/01/02 15:39:12;;;;;;;3.63;1.83;;;;;;;1.47;100.00;99642.19;10427961;28;20040;-79
2022/01/02 15:44:13;;;;;;;5.60;2.17;;;;;;;1.74;100.00;99718.41;10425568;28;20041;-80
2022/01/02 15:49:14;;;;;;;4.53;2.30;;;;;;;1.21;100.00;99628.63;10431772;28;20059;-78
2022/01/02 15:54:15;;;;;;;5.43;2.28;;;;;;;1.60;100.00;99695.16;10446325;28;20056;-79
2022/01/02 15:59:16;;;;;;;4.20;2.53;;;;;;;3.00;100.00;99928.09;10391218;28;20095;-79
2022/01/02 16:04:18;;;;;;;3.83;2.35;;;;;;;1.08;100.00;99641.88;10398505;28;20136;-80
2022/01/02 16:09:19;;;;;;;5.10;3.10;;;;;;;0.98;100.00;99646.16;10397576;28;20055;-82
2022/01/02 16:14:20;;;;;;;6.03;3.10;;;;;;;2.88;100.00;99935.22;10399553;28;20507;-78
2022/01/02 16:19:22;;;;;;;6.65;3.25;;;;;;;2.36;100.00;99845.16;10399231;28;20132;-79
2022/01/02 16:24:24;;;;;;;7.65;3.83;;;;;;;2.57;100.00;99853.00;10406089;28;20042;-84
2022/01/02 16:29:28;;;;;;;5.70;3.20;;;;;;;2.79;100.00;99887.94;10404194;28;20057;-81
2022/01/02 16:34:30;;;;;;;5.35;2.55;;;;;;;2.98;100.00;99907.22;10378085;28;20449;-77
2022/01/02 16:39:30;;;;;;;5.22;3.10;;;;;;;2.37;100.00;99793.56;10390412;28;20057;-83
2022/01/02 16:44:31;;;;;;;5.47;3.00;;;;;;;2.31;100.00;99802.78;10405151;28;20489;-81
2022/01/02 16:49:32;;;;;;;4.32;2.45;;;;;;;2.80;100.00;99886.97;10406968;28;20617;-79
2022/01/02 16:54:33;;;;;;;3.40;2.00;;;;;;;1.85;100.00;99751.56;10409620;28;20168;-80
2022/01/02 16:59:34;;;;;;;3.08;1.77;;;;;;;2.98;100.00;99936.09;10409089;28;20664;-80
2022/01/02 17:04:35;;;;;;;4.05;2.03;;;;;;;2.87;100.00;99932.69;10408290;28;20175;-82
2022/01/02 17:09:36;;;;;;;4.65;2.10;;;;;;;2.45;100.00;99854.03;10404088;28;20148;-78
2022/01/02 17:14:37;;;;;;;3.83;1.95;;;;;;;2.04;100.00;99787.56;10404935;28;20530;-79
2022/01/02 17:19:38;;;;;;;4.55;1.70;;;;;;;2.74;100.00;99897.00;10405711;28;20045;-79
2022/01/02 17:24:39;;;;;;;3.92;1.73;;;;;;;2.46;99.75;99855.72;10405382;28;20029;-81
2022/01/02 17:29:40;;;;;;;3.22;1.70;;;;;;;2.70;99.28;99921.84;10402167;28;20045;-79
2022/01/02 17:34:41;;;;;;;3.90;1.88;;;;;;;3.28;99.76;100004.50;10388573;28;20045;-79
2022/01/02 17:39:43;;;;;;;2.70;1.60;;;;;;;2.40;99.58;99878.03;10407055;28;20053;-79
2022/01/02 17:44:44;;;;;;;4.00;1.45;;;;;;;3.39;99.63;100017.56;10373996;28;20084;-79
2022/01/02 17:49:45;;;;;;;2.63;1.38;;;;;;;2.58;99.11;99901.88;10410281;28;20513;-78
2022/01/02 17:54:47;;;;;;;2.47;1.25;;;;;;;3.46;99.18;100055.47;10414362;28;20512;-81
2022/01/02 17:59:48;;;;;;;2.95;1.15;;;;;;;3.22;98.83;100045.22;10412372;28;20038;-78
2022/01/02 18:04:51;;;;;;;2.22;1.10;;;;;;;3.30;98.50;100076.09;10411305;28;20037;-79
2022/01/02 18:09:56;;;;;;;2.63;1.13;;;;;;;3.24;98.18;100084.50;10409958;28;20071;-79
2022/01/02 18:14:57;;;;;;;2.00;1.20;;;;;;;3.13;98.62;100072.25;10409978;28;20038;-80
2022/01/02 18:20:00;;;;;;;2.92;1.75;;;;;;;2.02;98.86;99909.97;10408989;28;20048;-83
2022/01/02 18:25:03;;;;;;;4.18;1.80;;;;;;;1.97;98.90;99938.31;10406980;28;20053;-83
2022/01/02 18:30:07;;;;;;;5.47;2.08;;;;;;;3.02;99.22;100117.75;10404619;28;20096;-80
2022/01/02 18:35:10;;;;;;;4.35;2.10;;;;;;;2.01;100.00;99979.06;10407828;28;20140;-84
2022/01/02 18:40:14;;;;;;;5.07;1.85;;;;;;;2.53;100.00;100086.78;10408182;28;20635;-83
2022/01/02 18:45:16;;;;;;;3.53;2.00;;;;;;;2.57;100.00;100083.75;10407671;28;20041;-83
2022/01/02 18:50:17;;;;;;;3.30;2.20;;;;;;;2.11;100.00;99981.78;10410529;28;20296;-81
2022/01/02 18:55:18;;;;;;;3.63;2.15;;;;;;;2.41;100.00;100054.50;10413089;28;20099;-84
2022/01/02 19:00:18;;;;;;;3.50;2.20;;;;;;;2.83;100.00;100138.56;10418968;28;20443;-79
2022/01/02 19:05:19;;;;;;;3.72;2.03;;;;;;;1.60;100.00;99978.72;10411816;28;20103;-85
2022/01/02 19:10:20;;;;;;;4.47;2.00;;;;;;;2.48;100.00;100161.41;10415332;28;20041;-81
2022/01/02 19:15:21;;;;;;;5.30;2.42;;;;;;;2.06;100.00;100139.34;10408112;28;20517;-80
2022/01/02 19:20:22;;;;;;;2.70;1.42;;;;;;;1.56;100.00;100102.97;10400815;28;20038;-80
2022/01/02 19:25:23;;;;;;;3.65;2.20;;;;;;;2.07;98.75;100213.56;10393778;28;20037;-81
2022/01/02 19:30:24;;;;;;;3.28;1.98;;;;;;;1.48;97.12;100123.66;10379291;28;20044;-77
2022/01/02 19:35:25;;;;;;;3.40;2.20;;;;;;;0.39;95.82;100019.22;10393358;28;20041;-78
2022/01/02 19:40:26;;;;;;;3.95;2.70;;;;;;;0.35;96.02;100036.06;10378435;28;20128;-80
2022/01/02 19:45:27;;;;;;;4.18;2.50;;;;;;;1.52;95.64;100244.69;10377429;28;20062;-81
2022/01/02 19:50:28;;;;;;;3.78;2.38;;;;;;;0.98;95.21;100180.53;10379058;28;20053;-85
2022/01/02 19:55:29;;;;;;;5.07;2.90;;;;;;;0.64;95.15;100150.75;10377702;28;20140;-83
2022/01/02 20:00:30;;;;;;;5.68;3.58;;;;;;;1.15;95.27;100244.75;10377858;28;20445;-80
2022/01/02 20:05:31;;;;;;;6.65;3.75;;;;;;;1.06;96.34;100276.78;10375666;28;20070;-78
2022/01/02 20:10:33;;;;;;;6.85;4.63;;;;;;;0.24;95.38;100158.78;10375833;28;20065;-78
2022/01/02 20:15:35;;;;;;;7.25;4.50;;;;;;;0.37;95.42;100188.34;10377754;28;20073;-78
2022/01/02 20:20:36;;;;;;;12.77;7.78;;;;;;;-0.05;95.86;100172.06;10377991;28;20042;-79
2022/01/02 20:25:36;;;;;;;11.45;7.38;;;;;;;-0.12;95.97;100183.88;10377273;28;20064;-79
2022/01/02 20:30:38;;;;;;;5.78;3.78;;;;;;;0.38;95.29;100291.09;10375367;28;20038;-80
2022/01/02 20:35:40;;;;;;;5.93;4.28;;;;;;;-0.20;94.09;100238.38;10376441;28;20052;-79
2022/01/02 20:40:41;;;;;;;7.40;4.53;;;;;;;-0.83;93.41;100176.44;10376721;28;20056;-78
2022/01/02 20:45:42;;;;;;;8.05;5.13;;;;;;;-0.94;92.89;100153.63;10376075;28;20506;-81
2022/01/02 20:50:48;;;;;;;9.55;5.30;;;;;;;0.55;92.94;100408.41;10375229;28;20042;-79
2022/01/02 20:55:50;;;;;;;8.40;5.00;;;;;;;-0.56;91.99;100213.75;10375656;28;20034;-84
2022/01/02 21:00:53;;;;;;;9.20;5.30;;;;;;;-0.32;91.24;100292.22;10390242;28;20088;-79
2022/01/02 21:05:54;;;;;;;9.20;5.45;;;;;;;0.34;91.55;100400.22;10381828;28;20053;-80
2022/01/02 21:10:54;;;;;;;10.10;5.88;;;;;;;-0.83;91.53;100194.69;10388951;28;20048;-79
2022/01/02 21:15:56;;;;;;;8.95;5.75;;;;;;;-1.15;91.85;100159.28;10383532;28;20128;-79
2022/01/02 21:20:56;;;;;;;9.55;6.13;;;;;;;0.12;91.93;100384.25;10372097;28;20061;-79
2022/01/02 21:25:58;;;;;;;9.18;5.45;;;;;;;-0.48;92.16;100266.28;10414056;28;20080;-79
2022/01/02 21:30:59;;;;;;;8.35;4.72;;;;;;;0.37;91.71;100409.63;10414613;28;20045;-79
2022/01/02 21:36:00;;;;;;;9.63;5.75;;;;;;;0.24;90.69;100401.75;10414377;28;20044;-79
2022/01/02 21:41:02;;;;;;;8.63;5.70;;;;;;;-1.42;89.61;100150.63;10415572;28;20048;-79
2022/01/02 21:46:03;;;;;;;8.95;5.38;;;;;;;-0.04;90.18;100395.69;10414233;28;20057;-80
2022/01/02 21:51:03;;;;;;;8.70;5.55;;;;;;;0.07;89.50;100413.31;10413930;28;20140;-80
2022/01/02 21:56:04;;;;;;;10.02;5.57;;;;;;;0.41;89.42;100477.25;10414870;28;20123;-79
2022/01/02 22:01:05;;;;;;;9.90;5.13;;;;;;;0.41;88.97;100469.41;10412402;28;20052;-79
2022/01/02 22:06:07;;;;;;;7.38;4.40;;;;;;;0.48;88.87;100455.94;10413976;28;20053;-80
2022/01/02 22:11:08;;;;;;;9.07;5.47;;;;;;;-0.43;88.45;100330.38;10414849;28;20501;-81
2022/01/02 22:16:10;;;;;;;7.93;5.55;;;;;;;-0.89;87.29;100291.56;10413774;28;20041;-79
2022/01/02 22:21:13;;;;;;;7.45;4.88;;;;;;;0.08;87.36;100448.91;10413532;28;20091;-79
2022/01/02 22:26:18;;;;;;;7.47;5.50;;;;;;;-1.35;87.57;100226.63;10413188;28;20413;-79
2022/01/02 22:31:22;;;;;;;11.90;5.97;;;;;;;-1.19;87.26;100282.09;10413826;28;20041;-79
2022/01/02 22:36:23;;;;;;;9.05;5.72;;;;;;;-0.94;87.78;100313.53;10411903;28;20049;-78
2022/01/02 22:41:26;;;;;;;8.70;4.70;;;;;;;0.22;86.92;100492.47;10412513;28;20041;-78
2022/01/02 22:46:28;;;;;;;8.43;5.60;;;;;;;0.21;87.01;100467.28;10411301;28;20069;-78
2022/01/02 22:51:30;;;;;;;9.02;5.75;;;;;;;0.08;86.05;100451.53;10413547;28;20049;-77
2022/01/02 22:56:31;;;;;;;8.20;5.30;;;;;;;-1.17;86.15;100261.97;10413107;28;20044;-79
2022/01/02 23:01:33;;;;;;;9.27;5.72;;;;;;;-0.06;86.31;100451.56;10412846;28;20049;-78
2022/01/02 23:06:34;;;;;;;9.88;5.47;;;;;;;-0.66;86.45;100376.19;10412065;28;20119;-78
2022/01/02 23:11:35;;;;;;;7.82;4.68;;;;;;;-0.65;86.29;100388.31;10412348;28;20072;-76
2022/01/02 23:16:37;;;;;;;9.15;5.45;;;;;;;-0.19;86.14;100472.41;10412460;28;20477;-79
2022/01/02 23:21:44;;;;;;;7.82;5.20;;;;;;;-0.19;86.02;100475.00;10412120;28;20041;-79
2022/01/02 23:26:46;;;;;;;7.70;5.28;;;;;;;-0.46;86.42;100423.59;10411568;28;20452;-79
2022/01/02 23:31:48;;;;;;;8.32;5.47;;;;;;;0.03;85.82;100516.31;10412821;28;20099;-78